Time;durP1;ratioP1;P1;durP2;ratioP2;P2;SDS_P1;SDS_P2;PMS_P1;PMS_P2;Temp;Humidity;BMP_temperature;BMP_pressure;BME280_temperature;BME280_humidity;BME280_pressure;Samples;Min_cycle;Max_cycle;Signal;HPM_P1;HPM_P2
2023/06/23 00:01:18;;;;;;;7.72;3.97;;;17.30;99.90;;;;;;4962944;28;20062;-36
2023/06/23 00:03:45;;;;;;;5.45;3.58;;;17.30;99.90;;;;;;4958200;28;20089;-36
2023/06/23 00:06:14;;;;;;;7.45;3.92;;;17.30;99.90;;;;;;4960584;28;20075;-36
2023/06/23 00:08:41;;;;;;;6.28;3.42;;;17.30;99.90;;;;;;4965023;28;20519;-36
2023/06/23 00:11:08;;;;;;;6.50;3.85;;;17.30;99.90;;;;;;4960988;28;20161;-36
2023/06/23 00:13:34;;;;;;;7.03;4.20;;;17.20;99.90;;;;;;4962858;28;20061;-36
2023/06/23 00:16:05;;;;;;;6.82;3.35;;;17.20;99.90;;;;;;4956081;28;20078;-36
2023/06/23 00:18:39;;;;;;;6.32;4.00;;;17.20;99.90;;;;;;4954193;28;20090;-36
2023/06/23 00:21:06;;;;;;;7.55;3.88;;;17.20;99.90;;;;;;4959316;28;20416;-36
2023/06/23 00:23:33;;;;;;;8.70;3.85;;;17.20;99.90;;;;;;4962906;28;20054;-36
2023/06/23 00:25:59;;;;;;;6.10;3.47;;;17.20;99.90;;;;;;4962103;28;20508;-36
2023/06/23 00:28:25;;;;;;;9.23;4.25;;;17.20;99.90;;;;;;4961011;28;20054;-36
2023/06/23 00:30:54;;;;;;;5.82;3.85;;;17.10;99.90;;;;;;4954166;28;20059;-36
2023/06/23 00:33:20;;;;;;;8.05;3.80;;;17.20;99.90;;;;;;4958150;28;20105;-37
2023/06/23 00:35:46;;;;;;;6.95;4.00;;;17.20;99.90;;;;;;4963857;28;20047;-37
2023/06/23 00:38:13;;;;;;;8.00;3.75;;;17.10;99.90;;;;;;4961937;28;20495;-37
2023/06/23 00:40:39;;;;;;;7.47;4.15;;;17.10;99.90;;;;;;4962126;28;20142;-37
2023/06/23 00:43:05;;;;;;;5.32;3.58;;;17.10;99.90;;;;;;4959060;28;20845;-37
2023/06/23 00:45:31;;;;;;;9.55;4.68;;;17.10;99.90;;;;;;4961193;28;20046;-37
2023/06/23 00:47:57;;;;;;;6.50;4.90;;;17.00;99.90;;;;;;4959770;28;20420;-37
2023/06/23 00:50:24;;;;;;;7.78;4.07;;;17.00;99.90;;;;;;4954723;28;20055;-37
2023/06/23 00:52:52;;;;;;;6.88;5.00;;;17.00;99.90;;;;;;4962408;28;20059;-37
2023/06/23 00:55:23;;;;;;;6.88;4.43;;;17.00;99.90;;;;;;4962298;28;20050;-37
2023/06/23 00:57:50;;;;;;;6.00;3.75;;;17.00;99.90;;;;;;4946121;28;20058;-38
2023/06/23 01:00:18;;;;;;;6.68;4.78;;;17.00;99.90;;;;;;4961048;28;20058;-38
2023/06/23 01:02:49;;;;;;;5.55;3.83;;;17.00;99.90;;;;;;4963576;28;20062;-38
2023/06/23 01:05:20;;;;;;;7.60;5.38;;;16.90;99.90;;;;;;4962310;28;20150;-38
2023/06/23 01:07:59;;;;;;;8.97;4.93;;;16.90;99.90;;;;;;4966660;28;20078;-36
2023/06/23 01:10:31;;;;;;;9.65;4.57;;;16.90;99.90;;;;;;4962330;28;20531;-35
2023/06/23 01:13:09;;;;;;;8.27;5.50;;;16.90;99.90;;;;;;4956107;28;20054;-36
2023/06/23 01:15:40;;;;;;;10.77;6.10;;;16.80;99.90;;;;;;4960771;28;20058;-36
2023/06/23 01:18:16;;;;;;;8.60;5.90;;;16.90;99.90;;;;;;4959849;28;20043;-35
2023/06/23 01:20:46;;;;;;;9.32;5.65;;;16.80;99.90;;;;;;4963302;28;20063;-38
2023/06/23 01:23:20;;;;;;;8.93;5.55;;;16.80;99.90;;;;;;4962293;28;20047;-37
2023/06/23 01:25:54;;;;;;;9.40;6.78;;;16.80;99.90;;;;;;4967258;28;20059;-37
2023/06/23 01:28:37;;;;;;;11.48;6.18;;;16.70;99.90;;;;;;4962992;28;20068;-35
2023/06/23 01:31:07;;;;;;;9.02;6.43;;;16.70;99.90;;;;;;4959150;28;20059;-36
2023/06/23 01:33:41;;;;;;;10.88;6.72;;;16.70;99.90;;;;;;4959318;28;20067;-35
2023/06/23 01:36:13;;;;;;;8.20;5.32;;;16.70;99.90;;;;;;4966244;28;20085;-35
2023/06/23 01:38:43;;;;;;;9.20;5.85;;;16.70;99.90;;;;;;4961797;28;20088;-35
2023/06/23 01:41:16;;;;;;;8.18;5.75;;;16.70;99.90;;;;;;4963425;28;20115;-36
2023/06/23 01:43:44;;;;;;;;;;;16.70;99.90;;;;;;4967262;28;20082;-36
2023/06/23 01:46:12;;;;;;;12.23;7.93;;;16.70;99.90;;;;;;4963820;28;19918;-35
2023/06/23 01:48:42;;;;;;;12.15;6.25;;;16.60;99.90;;;;;;4972995;28;20141;-35
2023/06/23 01:51:09;;;;;;;11.07;7.05;;;16.60;99.90;;;;;;4965716;28;20471;-36
2023/06/23 01:53:36;;;;;;;11.88;8.23;;;16.60;99.90;;;;;;4961079;28;20567;-35
2023/06/23 01:56:04;;;;;;;10.73;7.32;;;16.50;99.90;;;;;;4964573;28;20106;-35
2023/06/23 01:58:33;;;;;;;10.50;7.47;;;16.50;99.90;;;;;;4969130;28;20472;-35
2023/06/23 02:01:00;;;;;;;11.23;7.30;;;16.50;99.90;;;;;;4967707;28;20054;-36
2023/06/23 02:03:30;;;;;;;12.65;7.78;;;16.50;99.90;;;;;;4967483;28;20050;-36
2023/06/23 02:05:57;;;;;;;16.48;9.10;;;16.50;99.90;;;;;;4967996;28;20059;-36
2023/06/23 02:08:26;;;;;;;12.52;7.28;;;16.40;99.90;;;;;;4967541;28;20093;-36
2023/06/23 02:10:54;;;;;;;11.15;7.85;;;16.40;99.90;;;;;;4965347;28;20145;-36
2023/06/23 02:13:24;;;;;;;11.15;7.50;;;16.40;99.90;;;;;;4968117;28;20065;-36
2023/06/23 02:15:52;;;;;;;13.13;7.53;;;16.40;99.90;;;;;;4965344;28;20061;-35
2023/06/23 02:18:19;;;;;;;12.93;7.82;;;16.30;99.90;;;;;;4965784;28;20054;-36
2023/06/23 02:20:47;;;;;;;12.43;8.57;;;16.30;99.90;;;;;;4964621;28;20061;-36
2023/06/23 02:23:14;;;;;;;13.20;8.63;;;16.30;99.90;;;;;;4969263;28;20059;-36
2023/06/23 02:25:41;;;;;;;14.38;9.48;;;16.30;99.90;;;;;;4965328;28;20394;-35
2023/06/23 02:28:10;;;;;;;12.15;7.80;;;16.30;99.90;;;;;;4965777;28;20551;-35
2023/06/23 02:30:38;;;;;;;16.10;9.68;;;16.30;99.90;;;;;;4962373;28;20493;-35
2023/06/23 02:33:04;;;;;;;13.85;9.85;;;16.30;99.90;;;;;;4961432;28;20102;-35
2023/06/23 02:35:30;;;;;;;14.00;9.23;;;16.30;99.90;;;;;;4962824;28;20054;-36
2023/06/23 02:38:00;;;;;;;13.13;9.20;;;16.20;99.90;;;;;;4964046;28;20143;-35
2023/06/23 02:40:28;;;;;;;14.43;9.85;;;16.20;99.90;;;;;;4963995;28;20050;-36
2023/06/23 02:43:05;;;;;;;14.18;9.93;;;16.20;99.90;;;;;;4966925;28;20050;-35
2023/06/23 02:45:38;;;;;;;14.43;10.10;;;16.10;99.90;;;;;;4965377;28;20390;-36
2023/06/23 02:48:09;;;;;;;15.63;10.13;;;16.20;99.90;;;;;;4964279;28;20903;-35
2023/06/23 02:50:36;;;;;;;15.20;10.20;;;16.10;99.90;;;;;;4966762;28;20047;-36
2023/06/23 02:53:09;;;;;;;17.33;11.75;;;16.10;99.90;;;;;;4964361;28;20062;-35
2023/06/23 02:55:44;;;;;;;20.00;11.38;;;16.10;99.90;;;;;;4961766;28;20090;-35
2023/06/23 02:58:13;;;;;;;15.40;9.82;;;16.00;99.90;;;;;;4965316;28;20070;-35
2023/06/23 03:00:39;;;;;;;15.88;11.40;;;16.00;99.90;;;;;;4965332;28;20153;-35
2023/06/23 03:03:09;;;;;;;15.27;11.18;;;16.00;99.90;;;;;;4960833;28;20065;-35
2023/06/23 03:05:35;;;;;;;16.35;11.02;;;16.00;99.90;;;;;;4964629;28;20054;-36
2023/06/23 03:08:01;;;;;;;17.13;11.30;;;16.00;99.90;;;;;;4962693;28;20061;-35
2023/06/23 03:10:28;;;;;;;18.40;12.05;;;16.00;99.90;;;;;;4962773;28;20062;-36
2023/06/23 03:12:54;;;;;;;16.20;11.75;;;16.00;99.90;;;;;;4958532;28;20519;-36
2023/06/23 03:15:20;;;;;;;16.77;11.73;;;16.00;99.90;;;;;;4960163;28;20185;-36
2023/06/23 03:17:50;;;;;;;17.58;11.27;;;16.00;99.90;;;;;;4965800;28;20121;-36
2023/06/23 03:20:30;;;;;;;20.00;13.52;;;16.00;99.90;;;;;;4961423;28;20065;-35
2023/06/23 03:23:17;;;;;;;16.50;12.40;;;16.00;99.90;;;;;;4964565;28;20051;-35
2023/06/23 03:25:46;;;;;;;20.13;13.55;;;16.00;99.90;;;;;;4956796;28;20058;-35
2023/06/23 03:28:17;;;;;;;17.15;12.00;;;15.90;99.90;;;;;;4962209;28;20065;-35
2023/06/23 03:30:47;;;;;;;18.50;13.15;;;15.90;99.90;;;;;;4966142;28;20071;-36
2023/06/23 03:33:24;;;;;;;20.50;13.77;;;15.90;99.90;;;;;;4962355;28;20050;-35
2023/06/23 03:35:52;;;;;;;20.58;15.05;;;15.90;99.90;;;;;;4962867;28;20113;-35
2023/06/23 03:38:22;;;;;;;19.08;13.57;;;15.90;99.90;;;;;;4960298;28;20141;-36
2023/06/23 03:41:08;;;;;;;19.70;13.57;;;15.90;99.90;;;;;;4957943;28;20059;-36
2023/06/23 03:43:50;;;;;;;24.60;16.73;;;15.90;99.90;;;;;;4940276;28;20179;-36
2023/06/23 03:46:23;;;;;;;24.17;17.08;;;15.90;99.90;;;;;;4959220;28;20062;-35
2023/06/23 03:48:52;;;;;;;25.17;17.00;;;15.90;99.90;;;;;;4963907;28;20059;-35
2023/06/23 03:51:19;;;;;;;19.05;13.40;;;15.80;99.90;;;;;;4962482;28;20046;-36
2023/06/23 03:53:46;;;;;;;18.60;13.48;;;15.90;99.90;;;;;;4962350;28;20501;-35
2023/06/23 03:56:13;;;;;;;23.88;17.33;;;15.80;99.90;;;;;;4963497;28;20057;-36
2023/06/23 03:58:40;;;;;;;26.00;18.15;;;15.80;99.90;;;;;;4968156;28;20069;-36
2023/06/23 04:01:06;;;;;;;28.73;19.35;;;15.80;99.90;;;;;;4964426;28;20066;-35
2023/06/23 04:03:34;;;;;;;25.73;17.10;;;15.80;99.90;;;;;;4942133;28;20081;-35
2023/06/23 04:06:02;;;;;;;23.40;17.30;;;15.80;99.90;;;;;;4964181;28;20058;-37
2023/06/23 04:08:31;;;;;;;23.73;17.27;;;15.80;99.90;;;;;;4961236;28;20090;-36
2023/06/23 04:10:58;;;;;;;23.10;16.50;;;15.80;99.90;;;;;;4961460;28;20043;-36
2023/06/23 04:13:26;;;;;;;23.55;17.45;;;15.90;99.90;;;;;;4967137;28;20054;-35
2023/06/23 04:15:55;;;;;;;25.92;17.90;;;15.80;99.90;;;;;;4962374;28;20113;-37
2023/06/23 04:18:23;;;;;;;22.08;14.93;;;15.90;99.90;;;;;;4963477;28;20057;-36
2023/06/23 04:20:52;;;;;;;28.20;19.67;;;15.90;99.90;;;;;;4962088;28;20153;-36
2023/06/23 04:23:19;;;;;;;25.65;16.65;;;15.90;99.90;;;;;;4961873;28;20059;-35
2023/06/23 04:25:48;;;;;;;29.80;20.00;;;15.90;99.90;;;;;;4963297;28;20101;-35
2023/06/23 04:28:16;;;;;;;32.20;21.65;;;15.90;99.90;;;;;;4964349;28;20106;-36
2023/06/23 04:30:43;;;;;;;26.83;18.10;;;15.90;99.90;;;;;;4961917;28;20058;-35
2023/06/23 04:33:09;;;;;;;29.02;20.75;;;15.90;99.90;;;;;;4966001;28;20105;-35
2023/06/23 04:35:35;;;;;;;23.85;15.82;;;15.90;99.90;;;;;;4963366;28;20381;-34
2023/06/23 04:38:06;;;;;;;22.70;15.80;;;15.90;99.90;;;;;;4962419;28;20509;-35
2023/06/23 04:40:37;;;;;;;23.88;17.33;;;15.90;99.90;;;;;;4964126;28;20085;-35
2023/06/23 04:43:12;;;;;;;25.55;18.30;;;16.00;99.90;;;;;;4961692;28;20055;-36
2023/06/23 04:45:50;;;;;;;25.67;18.25;;;16.00;99.90;;;;;;4961158;28;20412;-35
2023/06/23 04:48:29;;;;;;;30.38;20.27;;;16.10;99.90;;;;;;4960991;28;20046;-35
2023/06/23 04:50:58;;;;;;;23.15;15.93;;;16.20;99.90;;;;;;4960306;28;20138;-36
2023/06/23 04:53:37;;;;;;;27.77;19.02;;;16.20;99.90;;;;;;4953714;28;20050;-35
2023/06/23 04:56:05;;;;;;;23.27;14.85;;;16.30;99.90;;;;;;4960702;28;20559;-35
2023/06/23 04:58:37;;;;;;;25.92;17.80;;;16.30;99.90;;;;;;4966597;28;20058;-35
2023/06/23 05:01:07;;;;;;;21.15;14.75;;;16.30;99.90;;;;;;4956714;28;20087;-35
2023/06/23 05:03:33;;;;;;;20.10;14.23;;;16.30;99.90;;;;;;4960114;28;20054;-35
2023/06/23 05:06:00;;;;;;;23.75;16.20;;;16.30;99.90;;;;;;4965452;28;20109;-35
2023/06/23 05:08:27;;;;;;;23.10;16.08;;;16.40;99.90;;;;;;4961814;28;20057;-35
2023/06/23 05:10:58;;;;;;;21.33;14.68;;;16.40;99.90;;;;;;4960228;28;20059;-35
2023/06/23 05:13:27;;;;;;;20.92;14.88;;;16.40;99.90;;;;;;4959673;28;20054;-34
2023/06/23 05:15:53;;;;;;;21.50;14.02;;;16.40;99.90;;;;;;4957091;28;20055;-35
2023/06/23 05:18:21;;;;;;;23.77;13.85;;;16.40;99.90;;;;;;4938658;28;20093;-36
2023/06/23 05:20:49;;;;;;;18.80;13.13;;;16.40;99.90;;;;;;4957315;28;20069;-35
2023/06/23 05:23:16;;;;;;;22.52;13.80;;;16.50;99.90;;;;;;4955858;28;20773;-35
2023/06/23 05:25:44;;;;;;;19.33;13.15;;;16.40;99.90;;;;;;4955795;28;20066;-35
2023/06/23 05:28:12;;;;;;;23.65;13.07;;;16.40;99.90;;;;;;4962154;28;20150;-35
2023/06/23 05:30:41;;;;;;;22.90;15.00;;;16.40;99.90;;;;;;4957287;28;20456;-36
2023/06/23 05:33:09;;;;;;;20.52;13.02;;;16.50;99.90;;;;;;4961325;28;20050;-35
2023/06/23 05:35:39;;;;;;;20.05;12.57;;;16.50;99.90;;;;;;4961109;28;20555;-35
2023/06/23 05:38:06;;;;;;;18.00;11.52;;;16.50;99.90;;;;;;4959837;28;20054;-36
2023/06/23 05:40:32;;;;;;;20.95;13.95;;;16.50;99.90;;;;;;4946054;28;20319;-36
2023/06/23 05:42:58;;;;;;;17.52;11.70;;;16.60;99.90;;;;;;4953781;28;20058;-35
2023/06/23 05:45:24;;;;;;;20.38;13.00;;;16.80;99.90;;;;;;4942272;28;20058;-36
2023/06/23 05:48:09;;;;;;;18.23;10.65;;;16.90;99.90;;;;;;4956497;28;20059;-35
2023/06/23 05:50:37;;;;;;;17.27;10.90;;;17.00;99.90;;;;;;4959980;28;20497;-35
2023/06/23 05:53:06;;;;;;;15.30;9.77;;;17.10;99.90;;;;;;4960885;28;20157;-35
2023/06/23 05:55:39;;;;;;;16.77;9.48;;;17.30;99.90;;;;;;4946342;28;20051;-36
2023/06/23 05:58:08;;;;;;;17.15;9.38;;;17.30;99.90;;;;;;4956370;28;20455;-36
2023/06/23 06:00:43;;;;;;;14.32;9.00;;;17.40;99.90;;;;;;4954189;28;20154;-35
2023/06/23 06:03:14;;;;;;;17.92;9.90;;;17.50;99.90;;;;;;4960919;28;20069;-35
2023/06/23 06:05:42;;;;;;;13.90;8.38;;;17.60;99.90;;;;;;4955893;28;20519;-35
2023/06/23 06:08:09;;;;;;;13.52;8.25;;;17.70;99.90;;;;;;4960790;28;20067;-35
2023/06/23 06:10:38;;;;;;;13.65;8.30;;;17.80;99.90;;;;;;4960315;28;20050;-35
2023/06/23 06:13:05;;;;;;;11.50;6.95;;;17.90;99.90;;;;;;4958624;28;20784;-35
2023/06/23 06:15:32;;;;;;;11.95;7.22;;;18.00;99.90;;;;;;4958021;28;20051;-35
2023/06/23 06:18:03;;;;;;;11.27;7.78;;;18.00;99.90;;;;;;4962007;28;20093;-35
2023/06/23 06:20:30;;;;;;;16.60;7.63;;;18.10;99.90;;;;;;4965199;28;20051;-35
2023/06/23 06:22:57;;;;;;;10.60;6.22;;;18.20;99.90;;;;;;4959724;28;20060;-35
2023/06/23 06:25:25;;;;;;;11.20;6.80;;;18.30;99.90;;;;;;4965922;28;20080;-35
2023/06/23 06:27:52;;;;;;;14.48;7.18;;;18.40;99.90;;;;;;4970258;28;20174;-36
2023/06/23 06:30:19;;;;;;;10.63;7.22;;;18.50;99.90;;;;;;4961913;28;20556;-35
2023/06/23 06:32:46;;;;;;;10.73;6.05;;;18.60;99.90;;;;;;4963566;28;20184;-35
2023/06/23 06:35:15;;;;;;;8.30;5.38;;;18.60;99.90;;;;;;4960675;28;20559;-36
2023/06/23 06:37:47;;;;;;;10.32;5.40;;;18.70;99.90;;;;;;4963299;28;20133;-35
2023/06/23 06:40:18;;;;;;;10.38;6.03;;;18.70;99.90;;;;;;4963319;28;20059;-36
2023/06/23 06:42:44;;;;;;;9.43;5.68;;;18.80;99.90;;;;;;4967863;28;20082;-35
2023/06/23 06:45:10;;;;;;;9.70;5.15;;;18.90;99.90;;;;;;4966634;28;20077;-36
2023/06/23 06:47:43;;;;;;;9.77;5.35;;;19.00;99.90;;;;;;4965899;28;20059;-36
2023/06/23 06:50:19;;;;;;;8.73;4.97;;;19.10;99.90;;;;;;4964623;28;20054;-36
2023/06/23 06:52:46;;;;;;;8.75;5.55;;;19.10;99.90;;;;;;4961152;28;20055;-35
2023/06/23 06:55:21;;;;;;;8.85;5.03;;;19.20;99.90;;;;;;4964404;28;20463;-35
2023/06/23 06:57:48;;;;;;;8.43;4.63;;;19.30;99.90;;;;;;4938855;28;20058;-36
2023/06/23 07:00:20;;;;;;;6.20;3.97;;;19.40;99.90;;;;;;4953696;28;20061;-36
2023/06/23 07:02:46;;;;;;;7.15;4.28;;;19.50;99.90;;;;;;4958661;28;20054;-35
2023/06/23 07:05:13;;;;;;;7.03;4.57;;;19.50;99.90;;;;;;4964516;28;20054;-36
2023/06/23 07:07:39;;;;;;;8.18;3.50;;;19.70;99.90;;;;;;4964853;28;20062;-35
2023/06/23 07:10:05;;;;;;;6.45;4.40;;;19.70;99.90;;;;;;4963067;28;20046;-36
2023/06/23 07:12:31;;;;;;;5.55;3.63;;;19.80;99.90;;;;;;4966565;28;20105;-36
2023/06/23 07:14:57;;;;;;;10.88;4.53;;;19.90;99.90;;;;;;4963660;28;20551;-36
2023/06/23 07:17:23;;;;;;;6.57;4.10;;;20.00;99.90;;;;;;4961399;28;20047;-36
2023/06/23 07:19:49;;;;;;;5.90;4.00;;;20.00;99.90;;;;;;4958810;28;20425;-35
2023/06/23 07:22:15;;;;;;;5.22;3.42;;;20.00;99.90;;;;;;4945611;28;20436;-36
2023/06/23 07:24:41;;;;;;;6.10;3.58;;;20.10;99.90;;;;;;4962916;28;20575;-36
2023/06/23 07:27:08;;;;;;;6.95;3.25;;;20.20;99.90;;;;;;4940058;28;20496;-35
2023/06/23 07:29:34;;;;;;;5.90;3.58;;;20.20;99.90;;;;;;4960391;28;20055;-36
2023/06/23 07:32:01;;;;;;;5.38;3.28;;;20.30;99.90;;;;;;4959660;28;20407;-36
2023/06/23 07:34:28;;;;;;;6.97;3.20;;;20.40;99.90;;;;;;4959154;28;20055;-36
2023/06/23 07:36:54;;;;;;;5.30;3.38;;;20.40;99.90;;;;;;4956279;28;20059;-36
2023/06/23 07:39:20;;;;;;;5.78;2.72;;;20.50;99.90;;;;;;4961848;28;20062;-36
2023/06/23 07:41:45;;;;;;;4.53;2.42;;;20.60;99.90;;;;;;4961007;28;20050;-36
2023/06/23 07:44:11;;;;;;;4.50;2.40;;;20.60;99.90;;;;;;4959751;28;20058;-36
2023/06/23 07:46:37;;;;;;;5.25;2.90;;;20.80;99.90;;;;;;4960669;28;20058;-35
2023/06/23 07:49:02;;;;;;;4.97;2.45;;;20.80;99.90;;;;;;4962739;28;20116;-35
2023/06/23 07:51:28;;;;;;;4.97;2.90;;;20.80;99.90;;;;;;4966594;28;20089;-36
2023/06/23 07:53:55;;;;;;;5.43;3.08;;;20.90;99.90;;;;;;4963880;28;20097;-36
2023/06/23 07:56:21;;;;;;;4.53;2.67;;;20.90;99.90;;;;;;4945460;28;20062;-36
2023/06/23 07:58:47;;;;;;;5.10;3.25;;;21.00;99.90;;;;;;4961456;28;20050;-36
2023/06/23 08:01:13;;;;;;;5.63;3.10;;;21.10;99.90;;;;;;4956467;28;21459;-36
2023/06/23 08:03:39;;;;;;;4.57;2.50;;;21.20;99.90;;;;;;4961085;28;20424;-36
2023/06/23 08:06:04;;;;;;;3.88;2.28;;;21.30;99.90;;;;;;4937708;28;20089;-35
2023/06/23 08:08:32;;;;;;;5.15;2.30;;;21.40;99.90;;;;;;4958563;28;20054;-35
2023/06/23 08:10:58;;;;;;;3.70;2.10;;;21.50;99.90;;;;;;4963316;28;20070;-36
2023/06/23 08:13:24;;;;;;;5.38;2.53;;;21.60;99.90;;;;;;4960170;28;20166;-35
2023/06/23 08:15:49;;;;;;;5.15;2.97;;;21.70;99.90;;;;;;4966857;28;20047;-36
2023/06/23 08:18:15;;;;;;;4.15;2.60;;;21.70;99.90;;;;;;4961455;28;20094;-35
2023/06/23 08:20:41;;;;;;;4.30;2.42;;;21.80;99.90;;;;;;4956829;28;20066;-35
2023/06/23 08:23:06;;;;;;;4.85;2.60;;;21.90;99.90;;;;;;4961336;28;20059;-35
2023/06/23 08:25:32;;;;;;;4.00;2.63;;;21.90;99.90;;;;;;4957705;28;20102;-35
2023/06/23 08:27:58;;;;;;;4.03;2.45;;;21.90;99.90;;;;;;4954668;28;20460;-36
2023/06/23 08:30:28;;;;;;;5.35;3.08;;;21.90;99.90;;;;;;4941108;28;20062;-35
2023/06/23 08:32:54;;;;;;;6.25;2.90;;;22.00;99.90;;;;;;4957729;28;20523;-36
2023/06/23 08:35:20;;;;;;;5.22;2.95;;;22.10;99.90;;;;;;4960685;28;20051;-35
2023/06/23 08:37:46;;;;;;;4.97;3.10;;;22.20;99.90;;;;;;4962760;28;20066;-35
2023/06/23 08:40:12;;;;;;;5.03;2.92;;;22.20;99.90;;;;;;4961405;28;20059;-35
2023/06/23 08:42:38;;;;;;;4.00;2.65;;;22.30;99.90;;;;;;4963957;28;20050;-35
2023/06/23 08:45:06;;;;;;;5.00;2.30;;;22.40;99.90;;;;;;4966256;28;20058;-35
2023/06/23 08:47:41;;;;;;;3.38;1.80;;;22.30;99.90;;;;;;4964326;28;20054;-36
2023/06/23 08:50:08;;;;;;;4.05;2.72;;;22.40;99.90;;;;;;4964821;28;20684;-35
2023/06/23 08:52:34;;;;;;;3.67;2.20;;;22.40;99.90;;;;;;4964891;28;20113;-36
2023/06/23 08:55:02;;;;;;;4.07;2.47;;;22.40;99.90;;;;;;4971066;28;20056;-35
2023/06/23 08:57:28;;;;;;;3.60;2.45;;;22.50;99.90;;;;;;4969377;28;20130;-35
2023/06/23 08:59:55;;;;;;;3.80;2.08;;;22.60;99.90;;;;;;4964829;28;20197;-35
2023/06/23 09:02:20;;;;;;;3.78;1.67;;;22.70;99.90;;;;;;4963352;28;20054;-35
2023/06/23 09:04:46;;;;;;;2.25;1.50;;;22.80;99.90;;;;;;4962536;28;20062;-35
2023/06/23 09:07:12;;;;;;;4.72;1.67;;;22.80;99.90;;;;;;4947960;28;20051;-35
2023/06/23 09:09:38;;;;;;;2.22;1.40;;;22.90;99.90;;;;;;4943566;28;20086;-35
2023/06/23 09:12:05;;;;;;;5.25;1.67;;;22.90;99.90;;;;;;4965783;28;20062;-35
2023/06/23 09:14:31;;;;;;;2.53;1.38;;;23.00;99.90;;;;;;4968373;28;20065;-35
2023/06/23 09:16:57;;;;;;;4.05;1.60;;;23.00;99.90;;;;;;4962791;28;20310;-35
2023/06/23 09:19:24;;;;;;;2.50;1.35;;;23.10;99.90;;;;;;4964351;28;20146;-35
2023/06/23 09:21:49;;;;;;;3.63;2.40;;;23.10;99.90;;;;;;4964232;28;20474;-35
2023/06/23 09:24:16;;;;;;;3.38;2.30;;;23.20;99.90;;;;;;4958524;28;20047;-35
2023/06/23 09:26:47;;;;;;;4.65;2.50;;;23.20;99.90;;;;;;4960631;28;20688;-35
2023/06/23 09:29:15;;;;;;;6.50;2.43;;;23.20;99.90;;;;;;4961360;28;20057;-35
2023/06/23 09:31:41;;;;;;;3.67;2.33;;;23.20;99.90;;;;;;4958140;28;20412;-36
2023/06/23 09:34:07;;;;;;;4.45;2.72;;;23.30;99.90;;;;;;4959021;28;20051;-36
2023/06/23 09:36:37;;;;;;;3.95;2.20;;;23.30;99.90;;;;;;4960694;28;20074;-36
2023/06/23 09:39:03;;;;;;;3.03;1.95;;;23.20;99.90;;;;;;4960873;28;20067;-36
2023/06/23 09:41:33;;;;;;;3.05;1.77;;;23.20;99.90;;;;;;4955517;28;20540;-36
2023/06/23 09:43:59;;;;;;;4.18;2.05;;;23.20;99.90;;;;;;4968117;28;20042;-36
2023/06/23 09:46:32;;;;;;;4.43;1.85;;;23.30;99.90;;;;;;4960928;28;20408;-36
2023/06/23 09:48:59;;;;;;;5.50;2.70;;;23.30;99.90;;;;;;4969962;28;20046;-35
2023/06/23 09:51:25;;;;;;;3.70;1.58;;;23.30;99.90;;;;;;4969819;28;20043;-35
2023/06/23 09:53:50;;;;;;;3.90;2.28;;;23.40;99.90;;;;;;4966267;28;20551;-35
2023/06/23 09:56:21;;;;;;;5.63;2.45;;;23.40;99.90;;;;;;4963718;28;20421;-35
2023/06/23 09:58:48;;;;;;;4.03;1.92;;;23.40;99.90;;;;;;4964335;28;20062;-35
2023/06/23 10:01:18;;;;;;;5.70;3.30;;;23.50;99.90;;;;;;4967346;28;20094;-35
2023/06/23 10:03:55;;;;;;;4.22;2.92;;;23.60;99.90;;;;;;4967944;28;20145;-35
2023/06/23 10:06:28;;;;;;;3.83;2.72;;;23.50;99.90;;;;;;4972626;28;20049;-35
2023/06/23 10:08:59;;;;;;;4.03;2.53;;;23.50;99.90;;;;;;4964364;28;20047;-35
2023/06/23 10:11:30;;;;;;;5.15;3.10;;;23.60;99.90;;;;;;4966728;28;20155;-35
2023/06/23 10:13:59;;;;;;;6.80;2.53;;;23.80;99.90;;;;;;4967223;28;20518;-35
2023/06/23 10:16:25;;;;;;;3.92;2.30;;;24.00;99.90;;;;;;4969641;28;20128;-35
2023/06/23 10:18:52;;;;;;;3.35;1.95;;;24.10;99.90;;;;;;4965729;28;20114;-35
2023/06/23 10:21:18;;;;;;;3.60;1.83;;;24.10;99.90;;;;;;4967437;28;20055;-35
2023/06/23 10:23:45;;;;;;;3.55;2.03;;;24.00;99.90;;;;;;4965929;28;20059;-35
2023/06/23 10:26:12;;;;;;;4.50;2.10;;;24.00;99.90;;;;;;4968189;28;20057;-36
2023/06/23 10:28:43;;;;;;;5.30;1.85;;;24.00;99.90;;;;;;4956925;28;20512;-35
2023/06/23 10:31:09;;;;;;;2.70;1.58;;;24.00;99.90;;;;;;4965908;28;20453;-35
2023/06/23 10:33:37;;;;;;;3.67;2.08;;;24.00;99.90;;;;;;4958882;28;20555;-35
2023/06/23 10:36:07;;;;;;;4.68;2.05;;;24.00;99.90;;;;;;4960917;28;20081;-36
2023/06/23 10:38:34;;;;;;;3.60;1.35;;;24.00;99.90;;;;;;4969397;28;20054;-35
2023/06/23 10:41:01;;;;;;;2.10;1.20;;;23.80;99.90;;;;;;4958210;28;20055;-35
2023/06/23 10:43:33;;;;;;;2.72;1.50;;;23.90;99.90;;;;;;4960011;28;20193;-35
2023/06/23 10:46:00;;;;;;;3.60;1.50;;;24.00;99.90;;;;;;4967270;28;20050;-35
2023/06/23 10:48:27;;;;;;;2.78;1.50;;;24.10;99.90;;;;;;4962801;28;20059;-35
2023/06/23 10:50:53;;;;;;;4.53;1.13;;;24.10;99.90;;;;;;4966985;28;20145;-35
2023/06/23 10:53:25;;;;;;;2.78;1.40;;;24.20;99.90;;;;;;4960833;28;20409;-35
2023/06/23 10:55:58;;;;;;;3.47;1.40;;;24.20;99.90;;;;;;4959868;28;20100;-35
2023/06/23 10:58:24;;;;;;;2.55;1.55;;;24.30;99.90;;;;;;4964397;28;20047;-35
2023/06/23 11:00:53;;;;;;;3.10;1.60;;;24.40;99.90;;;;;;4960576;28;20497;-35
2023/06/23 11:03:35;;;;;;;2.53;1.50;;;24.20;99.90;;;;;;4959404;28;20089;-35
2023/06/23 11:06:09;;;;;;;3.60;1.83;;;24.30;99.90;;;;;;4971078;28;20504;-36
2023/06/23 11:08:37;;;;;;;3.58;1.50;;;24.30;99.90;;;;;;4965411;28;20051;-36
2023/06/23 11:11:05;;;;;;;3.75;1.60;;;24.40;99.90;;;;;;4963156;28;20055;-35
2023/06/23 11:13:45;;;;;;;3.33;1.88;;;24.40;99.90;;;;;;4966419;28;20047;-35
2023/06/23 11:16:17;;;;;;;3.65;2.40;;;24.60;99.90;;;;;;4965481;28;20058;-35
2023/06/23 11:18:51;;;;;;;3.20;2.00;;;24.50;99.90;;;;;;4965541;28;20055;-35
2023/06/23 11:21:27;;;;;;;5.35;1.90;;;24.60;99.90;;;;;;4968077;28;20055;-35
2023/06/23 11:24:19;;;;;;;4.18;2.20;;;24.70;99.90;;;;;;4962008;28;20065;-36
2023/06/23 11:26:51;;;;;;;3.42;2.30;;;24.70;99.90;;;;;;4954252;28;20515;-35
2023/06/23 11:29:22;;;;;;;4.35;2.45;;;24.80;99.90;;;;;;4952309;28;20050;-35
2023/06/23 11:32:13;;;;;;;4.55;2.40;;;24.80;99.90;;;;;;4952795;28;20066;-35
2023/06/23 11:34:52;;;;;;;3.37;2.17;;;24.70;99.90;;;;;;4965995;28;20057;-36
2023/06/23 11:37:18;;;;;;;3.80;2.00;;;24.60;99.90;;;;;;4964167;28;20130;-35
2023/06/23 11:39:44;;;;;;;4.22;2.40;;;24.70;99.90;;;;;;4959813;28;20528;-35
2023/06/23 11:42:10;;;;;;;4.85;2.17;;;24.60;99.90;;;;;;4967434;28;20109;-36
2023/06/23 11:44:36;;;;;;;6.80;2.00;;;24.70;99.90;;;;;;4966140;28;20149;-35
2023/06/23 11:47:02;;;;;;;3.63;2.00;;;24.80;99.90;;;;;;4963560;28;20615;-35
2023/06/23 11:49:28;;;;;;;4.75;2.40;;;24.90;99.90;;;;;;4965965;28;20148;-35
2023/06/23 11:52:04;;;;;;;2.65;1.90;;;24.90;99.90;;;;;;4960314;28;20501;-35
2023/06/23 11:54:35;;;;;;;3.42;1.73;;;25.00;99.90;;;;;;4962091;28;20051;-35
2023/06/23 11:57:05;;;;;;;2.80;1.33;;;25.20;99.90;;;;;;4964891;28;20130;-35
2023/06/23 11:59:38;;;;;;;2.65;1.42;;;25.50;99.90;;;;;;4962651;28;20494;-35
2023/06/23 12:02:06;;;;;;;2.10;1.20;;;25.60;99.90;;;;;;4962885;28;20133;-35
2023/06/23 12:04:32;;;;;;;3.90;1.73;;;25.60;99.90;;;;;;4969260;28;20042;-36
2023/06/23 12:06:59;;;;;;;2.30;1.38;;;25.70;99.90;;;;;;4962560;28;20422;-35
2023/06/23 12:09:26;;;;;;;4.43;1.50;;;25.80;99.90;;;;;;4955304;28;20125;-35
2023/06/23 12:11:53;;;;;;;3.58;1.40;;;25.90;99.90;;;;;;4968729;28;20405;-35
2023/06/23 12:14:26;;;;;;;5.65;1.60;;;26.00;99.90;;;;;;4965811;28;20057;-35
2023/06/23 12:16:52;;;;;;;2.22;1.25;;;26.00;99.90;;;;;;4956532;28;20567;-35
2023/06/23 12:19:21;;;;;;;3.20;1.20;;;26.20;99.90;;;;;;4957186;28;20043;-35
2023/06/23 12:21:47;;;;;;;2.53;1.77;;;26.20;99.90;;;;;;4930510;28;20070;-35
2023/06/23 12:24:13;;;;;;;2.28;1.13;;;26.40;99.90;;;;;;4963059;28;20452;-35
2023/06/23 12:26:41;;;;;;;4.22;1.40;;;26.50;99.90;;;;;;4974664;28;20133;-35
2023/06/23 12:29:08;;;;;;;2.63;1.25;;;26.70;99.90;;;;;;4972755;28;20063;-36
2023/06/23 12:31:34;;;;;;;2.75;1.40;;;26.90;99.90;;;;;;4968948;28;20444;-35
2023/06/23 12:34:01;;;;;;;2.90;1.33;;;27.00;99.90;;;;;;4964252;28;20113;-35
2023/06/23 12:36:27;;;;;;;2.67;1.50;;;27.20;99.90;;;;;;4970538;28;20101;-35
2023/06/23 12:38:55;;;;;;;2.28;1.30;;;27.40;99.90;;;;;;4967684;28;20055;-35
2023/06/23 12:41:27;;;;;;;2.92;1.33;;;27.40;99.90;;;;;;4948460;28;20186;-35
2023/06/23 12:43:53;;;;;;;;;;;27.50;99.90;;;;;;4964247;28;20050;-35
2023/06/23 12:46:24;;;;;;;2.10;1.30;;;27.50;99.90;;;;;;4962337;28;19961;-35
2023/06/23 12:48:50;;;;;;;2.22;1.50;;;27.50;99.90;;;;;;4946128;28;20125;-35